createdAt,value
2022-11-12T00:01:52.103Z,36.83
2022-11-12T00:03:53.664Z,40.25
2022-11-12T00:05:55.230Z,41.80
2022-11-12T00:07:56.699Z,39.10
2022-11-12T00:09:58.158Z,37.83
2022-11-12T00:11:59.610Z,39.00
2022-11-12T00:14:01.424Z,38.28
2022-11-12T00:16:02.961Z,37.65
2022-11-12T00:18:04.516Z,35.30
2022-11-12T00:20:07.067Z,36.60
2022-11-12T00:22:08.530Z,39.25
2022-11-12T00:24:09.998Z,37.90
2022-11-12T00:26:11.417Z,46.20
2022-11-12T00:28:12.947Z,45.58
2022-11-12T00:30:14.447Z,39.22
2022-11-12T00:32:15.951Z,34.03
2022-11-12T00:34:17.456Z,33.40
2022-11-12T00:36:18.955Z,34.67
2022-11-12T00:38:20.496Z,36.35
2022-11-12T00:40:22.184Z,39.05
2022-11-12T00:42:23.746Z,36.33
2022-11-12T00:44:25.347Z,34.30
2022-11-12T00:46:26.815Z,36.53
2022-11-12T00:48:28.531Z,34.67
2022-11-12T00:50:30.343Z,37.97
2022-11-12T00:52:31.851Z,37.65
2022-11-12T00:54:33.319Z,35.17
2022-11-12T00:56:35.720Z,69.18
2022-11-12T00:58:37.369Z,41.22
2022-11-12T01:00:39.339Z,39.47
2022-11-12T01:02:45.247Z,38.97
2022-11-12T01:04:49.276Z,36.42
2022-11-12T01:06:50.809Z,35.05
2022-11-12T01:08:52.499Z,37.35
2022-11-12T01:10:54.006Z,36.97
2022-11-12T01:12:55.619Z,36.15
2022-11-12T01:14:57.110Z,39.33
2022-11-12T01:16:58.635Z,38.28
2022-11-12T01:19:01.598Z,48.38
2022-11-12T01:21:04.729Z,37.80
2022-11-12T01:23:06.731Z,38.22
2022-11-12T01:25:08.371Z,37.50
2022-11-12T01:27:09.919Z,40.47
2022-11-12T01:29:11.382Z,44.80
2022-11-12T01:31:18.686Z,56.67
2022-11-12T01:33:20.140Z,50.90
2022-11-12T01:35:21.638Z,51.17
2022-11-12T01:37:23.302Z,45.33
2022-11-12T01:39:24.907Z,44.75
2022-11-12T01:41:29.266Z,36.05
2022-11-12T01:43:30.715Z,33.92
2022-11-12T01:45:32.210Z,44.58
2022-11-12T01:47:35.235Z,39.22
2022-11-12T01:49:57.270Z,44.17
2022-11-12T01:52:06.259Z,38.88
2022-11-12T01:54:10.776Z,28.55
2022-11-12T01:56:13.294Z,28.02
2022-11-12T01:58:18.362Z,29.50
2022-11-12T02:00:20.079Z,26.63
2022-11-12T02:02:21.786Z,27.48
2022-11-12T02:04:24.048Z,26.00
2022-11-12T02:06:25.575Z,29.35
2022-11-12T02:08:29.232Z,29.95
2022-11-12T02:10:30.755Z,30.13
2022-11-12T02:12:51.275Z,31.55
2022-11-12T02:14:52.836Z,26.33
2022-11-12T02:16:54.436Z,27.13
2022-11-12T02:18:56.239Z,26.90
2022-11-12T02:21:03.134Z,26.95
2022-11-12T02:23:06.055Z,26.80
2022-11-12T02:25:12.066Z,27.23
2022-11-12T02:27:13.643Z,28.70
2022-11-12T02:29:15.307Z,27.58
2022-11-12T02:31:16.773Z,25.25
2022-11-12T02:33:18.261Z,24.67
2022-11-12T02:35:19.714Z,26.58
2022-11-12T02:37:21.174Z,28.20
2022-11-12T02:39:22.627Z,28.10
2022-11-12T02:41:24.620Z,31.23
2022-11-12T02:43:26.253Z,29.15
2022-11-12T02:45:28.644Z,26.58
2022-11-12T02:47:30.203Z,24.88
2022-11-12T02:49:31.696Z,22.83
2022-11-12T02:51:33.155Z,24.30
2022-11-12T02:53:35.144Z,25.90
2022-11-12T02:55:36.663Z,25.17
2022-11-12T02:57:39.126Z,24.80
2022-11-12T02:59:40.637Z,27.08
2022-11-12T03:01:42.085Z,25.80
2022-11-12T03:03:43.574Z,26.15
2022-11-12T03:05:46.004Z,23.58
2022-11-12T03:07:47.517Z,23.15
2022-11-12T03:09:49.011Z,24.38
2022-11-12T03:11:50.455Z,25.70
2022-11-12T03:13:52.005Z,26.60
2022-11-12T03:16:00.616Z,27.45
2022-11-12T03:18:02.137Z,25.20
2022-11-12T03:20:03.880Z,23.88
2022-11-12T03:22:05.337Z,24.30
2022-11-12T03:24:07.107Z,23.92
2022-11-12T03:26:08.535Z,23.50
2022-11-12T03:28:13.254Z,25.33
2022-11-12T03:30:14.878Z,27.02
2022-11-12T03:32:16.336Z,27.17
2022-11-12T03:34:17.924Z,26.80
2022-11-12T03:36:19.367Z,26.27
2022-11-12T03:38:20.962Z,27.05
2022-11-12T03:40:22.487Z,25.05
2022-11-12T03:42:23.954Z,24.75
2022-11-12T03:44:25.433Z,24.77
2022-11-12T03:46:26.906Z,23.70
2022-11-12T03:48:28.811Z,23.92
2022-11-12T03:50:31.015Z,26.63
2022-11-12T03:52:32.460Z,30.42
2022-11-12T03:54:33.919Z,39.20
2022-11-12T03:56:35.448Z,37.92
2022-11-12T03:58:36.869Z,36.25
2022-11-12T04:00:38.323Z,34.25
2022-11-12T04:02:39.808Z,29.95
2022-11-12T04:05:00.098Z,31.85
2022-11-12T04:07:20.315Z,30.77
2022-11-12T04:09:21.763Z,29.55
2022-11-12T04:11:23.668Z,31.40
2022-11-12T04:13:28.350Z,31.42
2022-11-12T04:15:29.776Z,27.77
2022-11-12T04:17:49.846Z,31.13
2022-11-12T04:20:10.075Z,28.98
2022-11-12T04:22:11.859Z,29.38
2022-11-12T04:24:33.360Z,30.52
2022-11-12T04:26:34.900Z,32.85
2022-11-12T04:28:36.349Z,27.95
2022-11-12T04:30:37.847Z,26.60
2022-11-12T04:32:45.670Z,31.42
2022-11-12T04:34:47.157Z,38.85
2022-11-12T04:36:48.745Z,37.40
2022-11-12T04:38:50.189Z,32.47
2022-11-12T04:41:10.549Z,38.58
2022-11-12T04:43:33.901Z,36.05
2022-11-12T04:45:35.454Z,52.67
2022-11-12T04:47:41.377Z,46.67
2022-11-12T04:49:42.837Z,38.38
2022-11-12T04:52:03.063Z,49.47
2022-11-12T04:54:04.503Z,40.97
2022-11-12T04:56:06.427Z,32.10
2022-11-12T04:58:09.228Z,34.92
2022-11-12T05:00:11.698Z,34.60
2022-11-12T05:02:13.359Z,33.97
2022-11-12T05:04:14.829Z,34.42
2022-11-12T05:06:34.852Z,30.85
2022-11-12T05:08:36.290Z,43.47
2022-11-12T05:10:37.865Z,38.65
2022-11-12T05:12:39.683Z,42.03
2022-11-12T05:14:41.175Z,41.88
2022-11-12T05:16:42.872Z,41.08
2022-11-12T05:18:44.372Z,38.13
2022-11-12T05:20:45.959Z,37.22
2022-11-12T05:23:04.552Z,32.88
2022-11-12T05:25:08.229Z,35.88
2022-11-12T05:27:18.495Z,40.63
2022-11-12T05:29:20.015Z,42.25
2022-11-12T05:31:21.473Z,40.10
2022-11-12T05:33:23.397Z,109.20
2022-11-12T05:35:24.839Z,61.67
2022-11-12T05:37:26.276Z,56.03
2022-11-12T05:39:27.872Z,86.88
2022-11-12T05:41:39.956Z,77.93
2022-11-12T05:43:50.795Z,67.45
2022-11-12T05:45:52.265Z,36.47
2022-11-12T05:47:53.731Z,38.53
2022-11-12T05:49:55.264Z,41.72
2022-11-12T05:51:56.800Z,37.08
2022-11-12T05:53:58.539Z,33.10
2022-11-12T05:56:04.741Z,30.30
2022-11-12T05:58:07.083Z,28.92
2022-11-12T06:00:09.431Z,28.73
2022-11-12T06:02:10.889Z,31.58
2022-11-12T06:04:14.018Z,33.75
2022-11-12T06:06:15.726Z,29.75
2022-11-12T06:08:17.257Z,30.88
2022-11-12T06:10:20.692Z,29.88
2022-11-12T06:12:22.304Z,32.13
2022-11-12T06:14:23.822Z,34.95
2022-11-12T06:16:25.393Z,36.40
2022-11-12T06:18:27.346Z,32.88
2022-11-12T06:20:29.158Z,36.22
2022-11-12T06:22:30.624Z,40.20
2022-11-12T06:24:35.421Z,43.42
2022-11-12T06:26:38.040Z,48.13
2022-11-12T06:28:39.741Z,38.55
2022-11-12T06:30:41.252Z,39.22
2022-11-12T06:32:46.234Z,38.40
2022-11-12T06:34:47.696Z,31.42
2022-11-12T06:36:49.457Z,28.55
2022-11-12T06:38:51.173Z,26.98
2022-11-12T06:40:52.671Z,27.02
2022-11-12T06:42:58.703Z,27.35
2022-11-12T06:45:00.752Z,27.63
2022-11-12T06:47:02.653Z,25.88
2022-11-12T06:49:04.162Z,24.77
2022-11-12T06:51:08.089Z,28.52
2022-11-12T06:53:09.561Z,37.20
2022-11-12T06:55:11.411Z,42.65
2022-11-12T06:57:12.882Z,39.33
2022-11-12T06:59:14.412Z,41.67
2022-11-12T07:01:17.656Z,62.42
2022-11-12T07:03:19.239Z,122.00
2022-11-12T07:05:20.699Z,70.90
2022-11-12T07:07:22.181Z,46.72
2022-11-12T07:09:23.691Z,39.92
2022-11-12T07:11:25.213Z,30.90
2022-11-12T07:13:26.684Z,29.67
2022-11-12T07:15:28.244Z,26.35
2022-11-12T07:17:30.740Z,27.60
2022-11-12T07:19:32.294Z,30.55
2022-11-12T07:21:33.838Z,36.30
2022-11-12T07:23:36.627Z,43.20
2022-11-12T07:25:38.099Z,44.67
2022-11-12T07:27:39.575Z,41.85
2022-11-12T07:29:49.026Z,30.38
2022-11-12T07:31:50.717Z,49.70
2022-11-12T07:33:52.357Z,37.30
2022-11-12T07:36:15.031Z,19.85
2022-11-12T07:38:16.552Z,18.25
2022-11-12T07:40:18.084Z,22.63
2022-11-12T07:42:19.569Z,22.42
2022-11-12T07:44:21.147Z,25.52
2022-11-12T07:46:25.950Z,21.35
2022-11-12T07:48:29.828Z,22.45
2022-11-12T07:50:31.487Z,21.35
2022-11-12T07:52:33.526Z,22.40
2022-11-12T07:54:35.015Z,28.80
2022-11-12T07:56:36.566Z,36.40
2022-11-12T07:58:38.180Z,25.38
2022-11-12T08:00:39.675Z,24.45
2022-11-12T08:02:41.305Z,25.05
2022-11-12T08:04:42.846Z,23.30
2022-11-12T08:06:44.634Z,21.30
2022-11-12T08:08:46.425Z,19.40
2022-11-12T08:10:47.919Z,17.38
2022-11-12T08:12:49.387Z,16.85
2022-11-12T08:14:50.843Z,16.48
2022-11-12T08:16:52.697Z,15.95
2022-11-12T08:18:54.168Z,16.65
2022-11-12T08:21:07.629Z,17.50
2022-11-12T08:23:09.892Z,17.20
2022-11-12T08:25:11.393Z,18.98
2022-11-12T08:27:12.860Z,19.17
2022-11-12T08:29:15.018Z,20.58
2022-11-12T08:31:20.726Z,16.10
2022-11-12T08:33:22.869Z,15.63
2022-11-12T08:35:25.636Z,14.25
2022-11-12T08:37:27.057Z,14.32
2022-11-12T08:39:28.772Z,14.15
2022-11-12T08:41:30.237Z,13.77
2022-11-12T08:43:31.719Z,14.70
2022-11-12T08:45:35.688Z,16.02
2022-11-12T08:47:37.171Z,14.88
2022-11-12T08:49:42.519Z,12.93
2022-11-12T08:51:46.894Z,12.52
2022-11-12T08:53:48.372Z,13.70
2022-11-12T08:55:54.136Z,15.55
2022-11-12T08:57:55.627Z,13.75
2022-11-12T08:59:57.137Z,13.50
2022-11-12T09:01:58.799Z,12.45
2022-11-12T09:04:00.288Z,14.73
2022-11-12T09:06:06.084Z,12.10
2022-11-12T09:08:13.327Z,11.45
2022-11-12T09:10:15.225Z,11.27
2022-11-12T09:12:19.898Z,10.98
2022-11-12T09:14:21.827Z,11.77
2022-11-12T09:16:24.317Z,12.35
2022-11-12T09:18:26.207Z,11.75
2022-11-12T09:20:28.930Z,12.30
2022-11-12T09:22:32.241Z,13.68
2022-11-12T09:24:33.951Z,12.68
2022-11-12T09:26:35.424Z,11.80
2022-11-12T09:28:36.999Z,13.05
2022-11-12T09:30:42.471Z,14.25
2022-11-12T09:32:43.935Z,15.02
2022-11-12T09:34:45.516Z,14.55
2022-11-12T09:36:46.961Z,34.38
2022-11-12T09:38:48.410Z,33.22
2022-11-12T09:40:52.912Z,27.10
2022-11-12T09:42:54.474Z,16.83
2022-11-12T09:45:07.551Z,14.60
2022-11-12T09:47:20.751Z,16.15
2022-11-12T09:49:36.384Z,17.98
2022-11-12T09:51:43.926Z,47.08
2022-11-12T09:53:56.159Z,22.38
2022-11-12T09:55:57.685Z,22.17
2022-11-12T09:57:59.327Z,16.25
2022-11-12T10:00:02.760Z,14.60
2022-11-12T10:02:28.756Z,15.57
2022-11-12T10:04:40.839Z,18.15
2022-11-12T10:07:14.387Z,14.02
2022-11-12T10:09:34.216Z,16.13
2022-11-12T10:12:17.167Z,16.75
2022-11-12T10:14:39.095Z,9.73
2022-11-12T10:16:49.646Z,10.05
2022-11-12T10:19:03.100Z,11.85
2022-11-12T10:21:14.971Z,11.27
2022-11-12T10:23:26.245Z,10.02
2022-11-12T10:25:28.183Z,12.20
2022-11-12T10:27:38.759Z,12.38
2022-11-12T10:29:51.045Z,10.77
2022-11-12T10:31:52.538Z,11.18
2022-11-12T10:34:12.604Z,11.77
2022-11-12T10:36:28.535Z,13.10
2022-11-12T10:38:33.018Z,11.93
2022-11-12T10:40:39.679Z,11.68
2022-11-12T10:43:02.864Z,11.73
2022-11-12T10:45:30.935Z,11.15
2022-11-12T10:47:42.961Z,13.25
2022-11-12T10:49:44.863Z,18.50
2022-11-12T10:51:55.817Z,13.27
2022-11-12T10:53:57.411Z,13.30
2022-11-12T10:56:05.212Z,14.00
2022-11-12T10:58:09.477Z,16.83
2022-11-12T11:00:14.270Z,16.50
2022-11-12T11:02:18.416Z,15.63
2022-11-12T11:04:32.781Z,15.05
2022-11-12T11:06:34.348Z,15.65
2022-11-12T11:08:44.250Z,14.07
2022-11-12T11:12:47.217Z,12.85
2022-11-12T11:15:06.102Z,11.77
2022-11-12T11:17:17.035Z,11.93
2022-11-12T11:19:19.565Z,13.57
2022-11-12T11:21:44.561Z,12.35
2022-11-12T11:24:00.105Z,12.02
2022-11-12T11:26:24.178Z,12.38
2022-11-12T11:28:42.923Z,10.05
2022-11-12T11:31:25.997Z,13.88
2022-11-12T11:33:49.256Z,12.75
2022-11-12T11:35:59.657Z,15.10
2022-11-12T11:38:15.882Z,13.48
2022-11-12T11:40:41.546Z,14.52
2022-11-12T11:43:15.846Z,15.07
2022-11-12T11:45:54.608Z,12.93
2022-11-12T11:48:21.855Z,11.70
2022-11-12T11:50:30.784Z,13.38
2022-11-12T11:52:41.366Z,14.30
2022-11-12T11:55:01.865Z,13.57
2022-11-12T11:57:11.779Z,14.57
2022-11-12T12:01:38.109Z,13.07
2022-11-12T12:03:48.692Z,13.65
2022-11-12T12:05:57.076Z,15.80
2022-11-12T12:08:04.637Z,17.05
2022-11-12T12:10:11.923Z,22.88
2022-11-12T12:12:34.495Z,18.75
2022-11-12T12:15:28.488Z,19.35
2022-11-12T12:17:50.892Z,17.92
2022-11-12T12:20:01.276Z,28.42
2022-11-12T12:22:07.884Z,22.60
2022-11-12T12:24:27.918Z,15.35
2022-11-12T12:26:48.617Z,18.48
2022-11-12T12:28:55.449Z,19.25
2022-11-12T12:31:01.311Z,22.08
2022-11-12T12:33:09.411Z,19.02
2022-11-12T12:35:26.484Z,17.75
2022-11-12T12:38:01.449Z,22.50
2022-11-12T12:40:24.780Z,23.23
2022-11-12T12:42:44.899Z,18.77
2022-11-12T12:45:07.924Z,17.92
2022-11-12T12:47:13.862Z,19.33
2022-11-12T12:49:21.560Z,16.25
2022-11-12T12:51:23.818Z,17.10
2022-11-12T12:53:25.199Z,17.42
2022-11-12T12:55:38.586Z,17.48
2022-11-12T12:57:40.404Z,17.33
2022-11-12T12:59:42.305Z,17.17
2022-11-12T13:01:43.788Z,15.98
2022-11-12T13:04:04.640Z,14.50
2022-11-12T13:06:32.106Z,16.13
2022-11-12T13:08:37.019Z,15.80
2022-11-12T13:10:41.540Z,17.63
2022-11-12T13:13:05.036Z,16.30
2022-11-12T13:15:15.460Z,18.10
2022-11-12T13:17:44.660Z,18.77
2022-11-12T13:20:06.785Z,14.60
2022-11-12T13:22:18.120Z,19.05
2022-11-12T13:24:57.989Z,17.38
2022-11-12T13:29:29.432Z,49.90
2022-11-12T13:31:30.918Z,23.23
2022-11-12T13:33:33.760Z,47.33
2022-11-12T13:35:37.498Z,44.65
2022-11-12T13:38:08.035Z,77.78
2022-11-12T13:40:14.579Z,159.93
2022-11-12T13:42:37.366Z,152.88
2022-11-12T13:44:38.866Z,177.85
2022-11-12T13:46:40.815Z,156.18
2022-11-12T13:49:08.692Z,55.40
2022-11-12T13:51:16.400Z,186.05
2022-11-12T13:53:23.292Z,89.60
2022-11-12T13:55:24.808Z,116.20
2022-11-12T13:57:29.197Z,56.58
2022-11-12T13:59:30.686Z,43.95
2022-11-12T14:01:32.692Z,65.20
2022-11-12T14:04:07.085Z,170.07
2022-11-12T14:06:21.042Z,44.20
2022-11-12T14:08:35.022Z,33.42
2022-11-12T14:10:55.204Z,45.75
2022-11-12T14:13:22.645Z,25.02
2022-11-12T14:15:47.995Z,46.13
2022-11-12T14:18:04.037Z,29.65
2022-11-12T14:20:20.747Z,55.28
2022-11-12T14:22:22.597Z,31.02
2022-11-12T14:24:24.327Z,40.08
2022-11-12T14:26:42.183Z,51.65
2022-11-12T14:28:43.633Z,51.53
2022-11-12T14:30:45.355Z,38.03
2022-11-12T14:32:53.441Z,27.65
2022-11-12T14:34:54.897Z,54.75
2022-11-12T14:36:57.504Z,30.05
2022-11-12T14:38:59.671Z,25.10
2022-11-12T14:41:09.235Z,29.33
2022-11-12T14:43:28.139Z,23.55
2022-11-12T14:45:34.171Z,16.65
2022-11-12T14:47:36.891Z,21.00
2022-11-12T14:49:44.776Z,18.92
2022-11-12T14:52:04.075Z,20.23
2022-11-12T14:54:09.720Z,18.35
2022-11-12T14:56:22.508Z,17.70
2022-11-12T14:58:24.721Z,17.75
2022-11-12T15:00:32.047Z,19.98
2022-11-12T15:02:50.353Z,23.17
2022-11-12T15:05:01.194Z,22.98
2022-11-12T15:07:03.026Z,21.42
2022-11-12T15:09:05.396Z,19.98
2022-11-12T15:11:21.648Z,19.90
2022-11-12T15:13:27.608Z,20.17
2022-11-12T15:15:29.732Z,21.83
2022-11-12T15:17:34.537Z,22.70
2022-11-12T15:19:41.688Z,25.60
2022-11-12T15:21:49.517Z,26.80
2022-11-12T15:23:58.913Z,26.63
2022-11-12T15:26:01.641Z,25.33
2022-11-12T15:28:26.153Z,21.10
2022-11-12T15:30:30.753Z,26.52
2022-11-12T15:32:34.172Z,23.85
2022-11-12T15:34:41.533Z,25.67
2022-11-12T15:36:43.233Z,27.30
2022-11-12T15:38:52.845Z,25.48
2022-11-12T15:40:57.643Z,24.23
2022-11-12T15:43:01.753Z,23.42
2022-11-12T15:45:10.602Z,23.75
2022-11-12T15:47:20.985Z,24.93
2022-11-12T15:49:22.561Z,36.42
2022-11-12T15:51:24.026Z,26.27
2022-11-12T15:53:25.877Z,31.63
2022-11-12T15:55:27.857Z,28.42
2022-11-12T15:57:31.662Z,28.75
2022-11-12T15:59:33.158Z,26.23
2022-11-12T16:01:35.070Z,26.75
2022-11-12T16:03:36.718Z,55.22
2022-11-12T16:05:38.212Z,28.95
2022-11-12T16:07:39.652Z,28.52
2022-11-12T16:09:41.168Z,27.88
2022-11-12T16:11:42.944Z,29.00
2022-11-12T16:13:44.466Z,26.77
2022-11-12T16:15:46.138Z,25.15
2022-11-12T16:17:48.133Z,35.03
2022-11-12T16:19:49.639Z,23.77
2022-11-12T16:21:51.217Z,25.40
2022-11-12T16:23:52.720Z,23.05
2022-11-12T16:25:54.274Z,21.90
2022-11-12T16:27:57.584Z,22.75
2022-11-12T16:29:59.055Z,23.60
2022-11-12T16:32:00.511Z,27.33
2022-11-12T16:34:02.021Z,30.58
2022-11-12T16:36:04.092Z,29.02
2022-11-12T16:38:14.562Z,35.47
2022-11-12T16:40:22.166Z,48.10
2022-11-12T16:42:23.674Z,32.72
2022-11-12T16:44:25.135Z,47.75
2022-11-12T16:46:31.211Z,60.00
2022-11-12T16:48:32.859Z,44.22
2022-11-12T16:50:34.371Z,40.10
2022-11-12T16:52:36.019Z,48.20
2022-11-12T16:54:37.563Z,43.65
2022-11-12T16:56:39.328Z,37.72
2022-11-12T16:58:41.327Z,43.78
2022-11-12T17:00:45.808Z,53.55
2022-11-12T17:02:52.244Z,44.13
2022-11-12T17:04:55.018Z,44.17
2022-11-12T17:06:56.514Z,54.83
2022-11-12T17:08:58.070Z,45.55
2022-11-12T17:11:06.109Z,45.75
2022-11-12T17:13:11.808Z,41.85
2022-11-12T17:15:13.347Z,39.80
2022-11-12T17:17:14.843Z,37.05
2022-11-12T17:19:16.379Z,37.72
2022-11-12T17:21:18.931Z,34.78
2022-11-12T17:23:20.494Z,46.78
2022-11-12T17:25:22.008Z,46.88
2022-11-12T17:27:23.605Z,46.70
2022-11-12T17:29:25.074Z,36.53
2022-11-12T17:31:26.798Z,35.78
2022-11-12T17:33:28.670Z,36.10
2022-11-12T17:35:33.254Z,35.17
2022-11-12T17:37:34.716Z,50.92
2022-11-12T17:39:36.339Z,41.22
2022-11-12T17:41:37.909Z,34.08
2022-11-12T17:43:40.049Z,29.48
2022-11-12T17:45:49.981Z,27.58
2022-11-12T17:47:51.964Z,28.85
2022-11-12T17:49:53.416Z,29.42
2022-11-12T17:51:55.109Z,31.58
2022-11-12T17:53:56.561Z,54.25
2022-11-12T17:55:58.746Z,33.35
2022-11-12T17:58:00.331Z,30.88
2022-11-12T18:00:01.853Z,34.25
2022-11-12T18:02:03.434Z,27.80
2022-11-12T18:04:05.083Z,30.17
2022-11-12T18:06:09.552Z,26.45
2022-11-12T18:08:11.111Z,32.63
2022-11-12T18:10:18.326Z,31.13
2022-11-12T18:12:21.039Z,32.80
2022-11-12T18:14:23.306Z,36.58
2022-11-12T18:16:27.117Z,39.75
2022-11-12T18:18:29.687Z,38.08
2022-11-12T18:20:31.252Z,32.13
2022-11-12T18:22:32.769Z,33.25
2022-11-12T18:24:34.273Z,31.23
2022-11-12T18:26:35.717Z,33.67
2022-11-12T18:28:37.214Z,36.53
2022-11-12T18:30:39.349Z,35.60
2022-11-12T18:32:42.390Z,33.55
2022-11-12T18:34:45.222Z,29.90
2022-11-12T18:36:46.802Z,30.42
2022-11-12T18:38:50.154Z,32.63
2022-11-12T18:41:07.175Z,28.60
2022-11-12T18:43:08.616Z,28.63
2022-11-12T18:45:10.416Z,19.67
2022-11-12T18:47:11.930Z,28.67
2022-11-12T18:49:13.455Z,35.65
2022-11-12T18:51:17.050Z,25.63
2022-11-12T18:53:18.556Z,36.53
2022-11-12T18:55:20.152Z,27.65
2022-11-12T18:57:22.527Z,32.67
2022-11-12T18:59:30.365Z,37.20
2022-11-12T19:01:32.268Z,44.83
2022-11-12T19:03:33.744Z,44.60
2022-11-12T19:05:35.328Z,45.38
2022-11-12T19:07:36.804Z,45.03
2022-11-12T19:09:38.304Z,45.80
2022-11-12T19:11:39.836Z,37.47
2022-11-12T19:13:42.256Z,27.55
2022-11-12T19:15:43.766Z,33.08
2022-11-12T19:17:45.250Z,32.60
2022-11-12T19:19:46.740Z,32.95
2022-11-12T19:21:48.922Z,33.35
2022-11-12T19:23:54.387Z,34.63
2022-11-12T19:25:56.669Z,29.20
2022-11-12T19:27:58.205Z,34.55
2022-11-12T19:30:02.934Z,32.08
2022-11-12T19:32:05.100Z,26.05
2022-11-12T19:34:06.585Z,30.92
2022-11-12T19:36:14.527Z,36.58
2022-11-12T19:38:16.059Z,35.47
2022-11-12T19:40:17.520Z,30.48
2022-11-12T19:42:19.132Z,40.45
2022-11-12T19:44:21.415Z,39.15
2022-11-12T19:46:22.969Z,33.97
2022-11-12T19:48:24.993Z,35.80
2022-11-12T19:50:26.797Z,33.85
2022-11-12T19:52:28.288Z,40.40
2022-11-12T19:54:29.787Z,39.10
2022-11-12T19:56:33.169Z,34.55
2022-11-12T19:58:34.635Z,41.47
2022-11-12T20:00:37.325Z,40.00
2022-11-12T20:02:38.770Z,19.80
2022-11-12T20:04:40.243Z,33.05
2022-11-12T20:06:41.760Z,34.28
2022-11-12T20:08:43.330Z,50.08
2022-11-12T20:10:44.909Z,47.70
2022-11-12T20:12:46.599Z,40.25
2022-11-12T20:14:48.595Z,40.45
2022-11-12T20:16:50.670Z,37.55
2022-11-12T20:18:54.411Z,40.03
2022-11-12T20:20:57.354Z,41.85
2022-11-12T20:22:58.833Z,42.28
2022-11-12T20:25:00.306Z,47.42
2022-11-12T20:27:01.968Z,53.50
2022-11-12T20:29:03.763Z,49.28
2022-11-12T20:31:08.084Z,50.60
2022-11-12T20:33:09.554Z,48.55
2022-11-12T20:35:17.904Z,55.38
2022-11-12T20:37:22.704Z,41.08
2022-11-12T20:39:24.187Z,49.58
2022-11-12T20:41:26.643Z,53.13
2022-11-12T20:43:29.364Z,44.25
2022-11-12T20:45:30.970Z,41.83
2022-11-12T20:47:33.049Z,42.40
2022-11-12T20:49:34.602Z,44.80
2022-11-12T20:51:36.376Z,46.88
2022-11-12T20:53:38.180Z,72.15
2022-11-12T20:55:39.650Z,41.60
2022-11-12T20:57:41.170Z,50.95
2022-11-12T20:59:43.201Z,45.95
2022-11-12T21:01:44.873Z,52.60
2022-11-12T21:03:47.097Z,70.40
2022-11-12T21:05:48.546Z,68.30
2022-11-12T21:07:50.065Z,36.92
2022-11-12T21:09:51.575Z,50.28
2022-11-12T21:11:53.524Z,47.30
2022-11-12T21:13:55.118Z,46.70
2022-11-12T21:15:56.677Z,44.53
2022-11-12T21:17:58.196Z,45.70
2022-11-12T21:19:59.790Z,46.75
2022-11-12T21:22:01.283Z,37.25
2022-11-12T21:24:05.056Z,46.42
2022-11-12T21:26:10.549Z,43.88
2022-11-12T21:28:12.014Z,40.63
2022-11-12T21:30:13.579Z,46.40
2022-11-12T21:32:15.076Z,46.00
2022-11-12T21:34:16.538Z,41.05
2022-11-12T21:36:20.152Z,47.15
2022-11-12T21:38:23.195Z,41.90
2022-11-12T21:40:25.316Z,40.80
2022-11-12T21:42:26.846Z,39.50
2022-11-12T21:44:28.348Z,44.90
2022-11-12T21:46:31.612Z,43.15
2022-11-12T21:48:33.071Z,63.10
2022-11-12T21:50:34.551Z,46.53
2022-11-12T21:52:35.976Z,38.70
2022-11-12T21:54:37.550Z,35.53
2022-11-12T21:56:40.231Z,38.28
2022-11-12T21:58:42.155Z,35.47
2022-11-12T22:00:43.870Z,35.42
2022-11-12T22:02:45.390Z,40.83
2022-11-12T22:04:46.858Z,38.58
2022-11-12T22:06:48.315Z,42.53
2022-11-12T22:08:54.268Z,42.85
2022-11-12T22:11:03.975Z,39.28
2022-11-12T22:13:25.922Z,41.42
2022-11-12T22:15:27.078Z,44.92
2022-11-12T22:17:28.602Z,56.20
2022-11-12T22:19:30.818Z,50.85
2022-11-12T22:21:38.387Z,55.85
2022-11-12T22:23:41.417Z,46.15
2022-11-12T22:25:42.900Z,43.60
2022-11-12T22:27:44.385Z,51.47
2022-11-12T22:29:47.274Z,51.05
2022-11-12T22:31:48.733Z,47.67
2022-11-12T22:33:50.602Z,45.80
2022-11-12T22:35:52.104Z,46.25
2022-11-12T22:37:54.494Z,41.42
2022-11-12T22:39:55.985Z,39.85
2022-11-12T22:41:57.546Z,42.28
2022-11-12T22:44:01.115Z,47.88
2022-11-12T22:46:07.400Z,49.38
2022-11-12T22:48:09.188Z,36.88
2022-11-12T22:50:10.700Z,32.90
2022-11-12T22:52:12.495Z,33.83
2022-11-12T22:54:18.005Z,39.17
2022-11-12T22:56:19.503Z,47.85
2022-11-12T22:58:22.039Z,45.00
2022-11-12T23:00:29.958Z,36.88
2022-11-12T23:02:31.487Z,39.53
2022-11-12T23:04:32.965Z,37.47
2022-11-12T23:06:34.988Z,37.72
2022-11-12T23:08:36.564Z,40.70
2022-11-12T23:10:43.035Z,43.88
2022-11-12T23:12:47.183Z,42.38
2022-11-12T23:14:48.656Z,39.92
2022-11-12T23:16:50.220Z,35.75
2022-11-12T23:18:53.347Z,41.53
2022-11-12T23:21:00.688Z,40.03
2022-11-12T23:23:02.178Z,42.88
2022-11-12T23:25:03.893Z,43.78
2022-11-12T23:27:05.367Z,48.67
2022-11-12T23:29:06.950Z,38.08
2022-11-12T23:31:23.583Z,37.92
2022-11-12T23:33:25.176Z,42.97
2022-11-12T23:35:28.003Z,36.90
2022-11-12T23:37:29.424Z,38.38
2022-11-12T23:39:30.957Z,35.30
2022-11-12T23:41:32.432Z,37.00
2022-11-12T23:43:34.022Z,35.33
2022-11-12T23:45:37.216Z,36.47
2022-11-12T23:47:38.955Z,36.83
2022-11-12T23:49:40.484Z,39.60
2022-11-12T23:51:42.008Z,39.15
2022-11-12T23:53:43.619Z,42.90
2022-11-12T23:55:45.085Z,46.10
2022-11-12T23:57:46.504Z,41.20
2022-11-12T23:59:48.118Z,48.40
